Nome, AK

7:15 PM AKDT on August 28, 2014 (GMT -0800)
White Mountain | Change Station
CLOSE
Current Station
Airport
Location: White Mountain,
Elevation: 266 ft
Nearby Weather Stations

Elev 266 ft 64.69 °N, 163.41 °W | Updated 17 minutes ago

Mostly Cloudy
Mostly Cloudy
59 °F
Feels Like 59 °F
N
13
Wind Variable Wind from NNW

Today
High -- | Low -- °F
--% Chance of Precip.
Yesterday
High -- | Low -- °F
Precip. -- in
7:31 AM 10:31 PM
Waxing Crescent, 11% visible
Pressure 29.70 in
Visibility 10.0 miles
Clouds Mostly Cloudy 4400 ft
Dew Point 45 °F
Humidity 60%
Rainfall 0.12 in
Snow Depth Not available.
UV 1 out of 12
Pollen Not available.
Air Quality Not available.
Flu Activity Not available.
METAR PAWM 290258Z AUTO 33011KT 10SM BKN044 15/07 A2968 RMK AO2 RAB09E20 SLP058 P0000 60000 T01500072 51007

More Conditions Fewer Conditions

Pressure 29.70 in
Visibility 10.0 miles
Clouds Mostly Cloudy 4400 ft
Dew Point 45 °F
Humidity 60%
Rainfall 0.12 in
Snow Depth Not available.
UV 1 out of 12
Pollen Not available.
Air Quality Not available.
Flu Activity Not available.
METAR PAWM 290258Z AUTO 33011KT 10SM BKN044 15/07 A2968 RMK AO2 RAB09E20 SLP058 P0000 60000 T01500072 51007

More Conditions Fewer Conditions

10-Day Weather Forecast

Almanac

Astronomy

Aug. 28, 2014 Rise Set
Actual Time 7:31 AM AKDT 10:31 PM AKDT
Civil Twilight 6:35 AM AKDT 11:27 PM AKDT
Nautical Twilight 5:12 AM AKDT 12:48 AM AKDT
Astronomical Twilight 3:35 AM AKDT 2:30 AM AKDT
Moon 11:57 AM AKDT (8/28) 10:34 PM AKDT (8/28)
Length of Visible Light 16h 52m
Length of Day
15h 00m
Tomorrow will be 6m 37s shorter.
Waxing Crescent, 11% of the Moon is Illuminated
Today
Waxing Crescent
Sep 2
First Quarter
Sep 8
Full
Sep 15
Last Quarter
Sep 24
New

Today's Extremes

State Highs State Lows

Community

WunderPhotos

Upload Photos

1,748,146 photos uploaded!

Nearby

Snow Depth

Station Depth Elevation
Rocky Point 4 in 500 ft
Coldfoot 0 in 1040 ft
Susitna Valley High 2 in 375 ft
Atigun Pass 0 in 4800 ft
Point Mackenzie 1 in 200 ft

Earthquake Activity

City Distance Mag. Time & Date
No recent earthquake activity has been reported nearby.
Minimum magnitude displayed is 2.5.

Coastal Water Temperatures

Place Temperature
No Stations Reporting

Nearby Weather Stations